Altmar, New York
Current Conditions -  °F | °C
As of 7:12 PM on Wednesday 26 Nov 2014 (Local Time) from KFZY Reporting Station
Light Snow Light Snow  
Wind Chill: 20°   Ceiling: 3700
Heat Index: 29°   Visibility: 3mi
Dew Point: 25°   Wind: 9mph
Humidity: 85%   Direction: 30°NNE
Pressure: 30.06"   Gusts: NA
Location:  43.51°N, 76°W
Report Text: KFZY 270012Z AUTO 03008KT 3SM -SN BR SCT009 OVC037 M02/M04 A3006 RMK AO2 P0000 T10171039
Loading
Personal Weather Stations






























Interactive Weather Map New forecast layout! Learn more

10-Day Weather Forecast

Advertisements
Track Severe Weather on mobile